Time;durP1;ratioP1;P1;durP2;ratioP2;P2;SDS_P1;SDS_P2;PMS_P1;PMS_P2;Temp;Humidity;BMP_temperature;BMP_pressure;BME280_temperature;BME280_humidity;BME280_pressure;Samples;Min_cycle;Max_cycle;Signal;HPM_P1;HPM_P2
2022/04/07 00:01:33;;;;;;;12.85;1.70;;;5.80;83.30;;;;;;4948908;28;20061;-65
2022/04/07 00:04:01;;;;;;;15.05;1.50;;;5.80;83.10;;;;;;4942244;28;20055;-64
2022/04/07 00:06:28;;;;;;;6.45;1.30;;;5.80;83.00;;;;;;4947313;28;20054;-64
2022/04/07 00:08:57;;;;;;;13.75;1.63;;;5.80;82.60;;;;;;4948049;28;20059;-65
2022/04/07 00:11:24;;;;;;;6.57;1.40;;;5.80;82.30;;;;;;4949836;28;20644;-65
2022/04/07 00:13:52;;;;;;;4.15;0.77;;;5.90;82.10;;;;;;4951370;28;20405;-65
2022/04/07 00:16:20;;;;;;;7.18;1.30;;;5.90;81.90;;;;;;4949842;28;20047;-63
2022/04/07 00:18:47;;;;;;;6.32;1.17;;;6.00;81.50;;;;;;4949555;28;20389;-63
2022/04/07 00:21:24;;;;;;;10.95;1.83;;;6.10;81.20;;;;;;4947941;28;20063;-64
2022/04/07 00:23:55;;;;;;;10.45;1.30;;;6.30;80.50;;;;;;4948107;28;20051;-64
2022/04/07 00:26:22;;;;;;;6.78;1.55;;;6.30;80.10;;;;;;4951224;28;20043;-64
2022/04/07 00:28:52;;;;;;;4.70;1.02;;;6.40;79.60;;;;;;4950035;28;20058;-64
2022/04/07 00:31:20;;;;;;;11.80;1.40;;;6.50;79.50;;;;;;4949060;28;20047;-64
2022/04/07 00:33:47;;;;;;;8.43;1.52;;;6.60;78.70;;;;;;4951369;28;20048;-64
2022/04/07 00:36:15;;;;;;;7.22;0.95;;;6.70;77.70;;;;;;4948671;28;20106;-64
2022/04/07 00:38:42;;;;;;;9.70;1.50;;;6.80;77.20;;;;;;4949797;28;20047;-64
2022/04/07 00:41:10;;;;;;;7.95;1.05;;;6.80;77.30;;;;;;4929006;28;20051;-64
2022/04/07 00:43:38;;;;;;;17.25;2.40;;;6.80;76.90;;;;;;4944510;28;20066;-64
2022/04/07 00:46:05;;;;;;;11.15;1.92;;;6.80;76.50;;;;;;4931903;29;20509;-64
2022/04/07 00:48:36;;;;;;;7.30;1.23;;;6.80;76.50;;;;;;4947374;28;20051;-65
2022/04/07 00:51:05;;;;;;;9.05;1.45;;;6.80;76.40;;;;;;4951778;28;20505;-65
2022/04/07 00:53:33;;;;;;;10.15;1.33;;;6.80;76.10;;;;;;4949060;28;20050;-65
2022/04/07 00:56:01;;;;;;;4.93;1.13;;;6.80;75.80;;;;;;4952216;28;20051;-64
2022/04/07 00:58:29;;;;;;;12.52;1.67;;;6.90;76.00;;;;;;4947044;28;20055;-64
2022/04/07 01:00:57;;;;;;;5.32;0.90;;;6.90;75.40;;;;;;4949686;28;20043;-64
2022/04/07 01:03:26;;;;;;;10.30;1.15;;;6.90;75.00;;;;;;4943983;28;20078;-64
2022/04/07 01:06:03;;;;;;;9.65;1.42;;;6.90;75.50;;;;;;5127241;27;20122;-64
2022/04/07 01:08:31;;;;;;;14.23;1.75;;;7.00;74.50;;;;;;5083025;28;20055;-64
2022/04/07 01:10:59;;;;;;;13.02;1.60;;;7.00;74.80;;;;;;5113763;28;20035;-64
2022/04/07 01:13:50;;;;;;;12.25;2.10;;;7.00;74.30;;;;;;5108759;28;20488;-64
2022/04/07 01:16:21;;;;;;;6.28;1.52;;;7.00;74.00;;;;;;5114035;28;20050;-65
2022/04/07 01:18:51;;;;;;;11.23;1.25;;;7.00;74.00;;;;;;5101066;28;20607;-65
2022/04/07 01:21:20;;;;;;;4.97;0.60;;;7.00;73.60;;;;;;5115091;28;20043;-65
2022/04/07 01:24:05;;;;;;;7.90;0.98;;;7.00;73.70;;;;;;5110801;28;20043;-66
2022/04/07 01:26:38;;;;;;;8.77;1.45;;;7.10;73.20;;;;;;5095938;28;20043;-64
2022/04/07 01:29:16;;;;;;;11.18;1.45;;;7.10;73.60;;;;;;5117308;28;20441;-65
2022/04/07 01:31:44;;;;;;;14.40;1.35;;;7.00;74.00;;;;;;5081671;28;21158;-65
2022/04/07 01:34:14;;;;;;;7.60;1.08;;;7.10;73.50;;;;;;5111883;28;20051;-65
2022/04/07 01:36:45;;;;;;;9.68;1.40;;;7.10;73.80;;;;;;5095391;28;20494;-65
2022/04/07 01:39:14;;;;;;;11.48;1.58;;;7.00;74.30;;;;;;5117026;28;20047;-64
2022/04/07 01:41:43;;;;;;;6.05;1.13;;;7.00;74.40;;;;;;5113424;28;20051;-65
2022/04/07 01:44:12;;;;;;;4.70;0.80;;;7.00;74.20;;;;;;5133502;27;20046;-65
2022/04/07 01:46:40;;;;;;;6.47;1.05;;;7.10;73.90;;;;;;5107097;28;20046;-64
2022/04/07 01:49:09;;;;;;;9.32;1.33;;;7.10;73.60;;;;;;5096794;28;20044;-64
2022/04/07 01:51:38;;;;;;;11.55;1.77;;;7.10;73.20;;;;;;5091062;28;20055;-64
2022/04/07 01:54:11;;;;;;;8.52;1.40;;;7.10;73.10;;;;;;5113416;28;20044;-64
2022/04/07 01:56:40;;;;;;;6.25;1.30;;;7.10;74.00;;;;;;5099045;28;20051;-64
2022/04/07 01:59:09;;;;;;;4.88;1.08;;;7.00;73.60;;;;;;5118016;28;20221;-64
2022/04/07 02:01:36;;;;;;;7.97;1.02;;;7.00;73.20;;;;;;5115679;28;20035;-64
2022/04/07 02:04:05;;;;;;;12.18;1.42;;;7.00;72.80;;;;;;5112409;28;20047;-64
2022/04/07 02:06:32;;;;;;;10.23;1.25;;;7.00;72.80;;;;;;5119080;28;20047;-64
2022/04/07 02:09:02;;;;;;;9.85;1.15;;;6.90;73.10;;;;;;5112584;28;20040;-64
2022/04/07 02:11:32;;;;;;;10.60;1.77;;;6.90;73.10;;;;;;5118897;28;20039;-65
2022/04/07 02:14:00;;;;;;;7.82;1.25;;;6.80;73.10;;;;;;5114563;28;20400;-65
2022/04/07 02:16:30;;;;;;;6.63;1.55;;;6.80;73.00;;;;;;5100652;28;20460;-65
2022/04/07 02:18:58;;;;;;;9.32;1.50;;;6.80;73.10;;;;;;5095583;28;20111;-65
2022/04/07 02:21:26;;;;;;;10.38;1.27;;;6.80;72.80;;;;;;5097481;28;20047;-65
2022/04/07 02:23:53;;;;;;;8.60;1.30;;;6.80;73.20;;;;;;5097630;28;20501;-67
2022/04/07 02:26:21;;;;;;;4.97;1.00;;;6.70;73.20;;;;;;5101340;28;20400;-65
2022/04/07 02:28:48;;;;;;;13.93;1.30;;;6.80;72.70;;;;;;5102644;28;20059;-65
2022/04/07 02:31:16;;;;;;;8.55;0.80;;;6.80;72.60;;;;;;5097237;28;20051;-65
2022/04/07 02:33:45;;;;;;;7.38;1.10;;;6.80;72.20;;;;;;5101787;28;20477;-65
2022/04/07 02:36:17;;;;;;;11.80;1.60;;;6.90;72.10;;;;;;5105872;28;20480;-65
2022/04/07 02:38:45;;;;;;;7.82;1.63;;;6.90;72.20;;;;;;5103722;28;20044;-64
2022/04/07 02:41:13;;;;;;;11.23;1.02;;;7.00;72.10;;;;;;5093795;28;20051;-64
2022/04/07 02:43:41;;;;;;;4.07;0.70;;;6.90;72.50;;;;;;5101103;28;20481;-66
2022/04/07 02:46:13;;;;;;;9.57;1.77;;;7.00;72.30;;;;;;5103089;28;20050;-66
2022/04/07 02:48:40;;;;;;;6.53;0.70;;;7.00;72.20;;;;;;5098289;28;20059;-65
2022/04/07 02:51:08;;;;;;;6.65;0.95;;;7.00;72.40;;;;;;5098336;28;20043;-65
2022/04/07 02:53:36;;;;;;;4.38;0.90;;;6.90;72.30;;;;;;5095886;28;20405;-65
2022/04/07 02:56:04;;;;;;;8.00;1.20;;;6.90;72.10;;;;;;5099562;28;20524;-65
2022/04/07 02:58:31;;;;;;;8.98;1.05;;;6.90;72.20;;;;;;5096362;28;20526;-65
2022/04/07 03:00:59;;;;;;;5.75;1.10;;;6.90;72.30;;;;;;5101655;28;20048;-65
2022/04/07 03:03:26;;;;;;;7.25;1.23;;;6.90;72.30;;;;;;5097924;28;20094;-66
2022/04/07 03:05:54;;;;;;;6.60;0.73;;;6.90;72.80;;;;;;5094000;28;20055;-65
2022/04/07 03:08:22;;;;;;;10.45;1.30;;;6.90;72.80;;;;;;5101097;28;20043;-65
2022/04/07 03:10:49;;;;;;;10.05;1.48;;;6.80;73.20;;;;;;5096008;28;20055;-65
2022/04/07 03:13:18;;;;;;;12.25;1.60;;;6.80;73.50;;;;;;5093659;28;20040;-65
2022/04/07 03:15:46;;;;;;;8.45;1.42;;;6.80;73.70;;;;;;5096481;28;20538;-65
2022/04/07 03:18:13;;;;;;;9.05;1.10;;;6.80;73.80;;;;;;5104446;28;20477;-65
2022/04/07 03:20:41;;;;;;;6.80;1.15;;;6.80;73.70;;;;;;5093704;28;20051;-65
2022/04/07 03:23:09;;;;;;;7.80;1.13;;;6.80;73.90;;;;;;5098633;28;20044;-65
2022/04/07 03:25:36;;;;;;;6.72;1.50;;;6.80;74.10;;;;;;5101367;28;20032;-65
2022/04/07 03:28:06;;;;;;;8.70;1.38;;;6.80;73.90;;;;;;5095775;28;20044;-65
2022/04/07 03:30:33;;;;;;;8.93;0.93;;;6.80;74.40;;;;;;5098537;28;20548;-65
2022/04/07 03:33:02;;;;;;;12.18;1.02;;;6.80;74.50;;;;;;5086610;28;20036;-66
2022/04/07 03:35:30;;;;;;;9.02;1.27;;;6.80;74.50;;;;;;5093476;28;20066;-65
2022/04/07 03:37:57;;;;;;;11.88;1.70;;;6.80;74.70;;;;;;5099425;28;20044;-65
2022/04/07 03:40:25;;;;;;;2.97;0.80;;;6.80;74.70;;;;;;5092898;28;20226;-65
2022/04/07 03:42:53;;;;;;;2.72;0.70;;;6.80;75.10;;;;;;5101378;28;20044;-65
2022/04/07 03:45:20;;;;;;;14.80;2.17;;;6.80;75.30;;;;;;5091817;28;20057;-65
2022/04/07 03:47:48;;;;;;;7.50;1.15;;;6.70;75.50;;;;;;5102873;28;20063;-65
2022/04/07 03:50:15;;;;;;;8.45;1.52;;;6.70;75.80;;;;;;5095848;28;20046;-65
2022/04/07 03:52:43;;;;;;;4.00;0.90;;;6.70;75.60;;;;;;5095298;28;20043;-65
2022/04/07 03:55:11;;;;;;;8.07;1.25;;;6.70;75.70;;;;;;5093925;28;20067;-65
2022/04/07 03:57:39;;;;;;;11.82;1.75;;;6.70;76.20;;;;;;5100413;28;20113;-65
2022/04/07 04:00:07;;;;;;;7.43;1.23;;;6.70;76.90;;;;;;5100015;28;20500;-65
2022/04/07 04:02:40;;;;;;;10.65;1.13;;;6.60;77.70;;;;;;5096047;28;20039;-66
2022/04/07 04:05:09;;;;;;;4.50;1.15;;;6.50;78.40;;;;;;5091118;28;20052;-65
2022/04/07 04:07:37;;;;;;;7.53;1.00;;;6.50;78.80;;;;;;5096944;28;20488;-65
2022/04/07 04:10:05;;;;;;;3.70;1.05;;;6.40;79.10;;;;;;5092717;28;20046;-65
2022/04/07 04:12:32;;;;;;;7.93;0.95;;;6.40;78.80;;;;;;5094899;28;20154;-64
2022/04/07 04:15:01;;;;;;;9.57;1.25;;;6.40;79.10;;;;;;5090958;28;20040;-65
2022/04/07 04:17:32;;;;;;;8.23;1.40;;;6.40;79.10;;;;;;5101272;28;20066;-65
2022/04/07 04:20:00;;;;;;;8.00;1.25;;;6.40;79.10;;;;;;5094313;28;20066;-64
2022/04/07 04:22:28;;;;;;;6.85;1.33;;;6.40;79.00;;;;;;5091851;28;20052;-64
2022/04/07 04:24:56;;;;;;;7.00;1.15;;;6.40;79.00;;;;;;5090926;28;20050;-65
2022/04/07 04:27:23;;;;;;;4.93;0.80;;;6.30;79.20;;;;;;5096763;28;20500;-64
2022/04/07 04:29:51;;;;;;;12.05;1.33;;;6.40;78.70;;;;;;5096150;28;20058;-65
2022/04/07 04:32:18;;;;;;;7.13;1.27;;;6.40;78.30;;;;;;5098503;28;20039;-64
2022/04/07 04:34:46;;;;;;;11.98;1.65;;;6.40;78.40;;;;;;5100909;28;20051;-64
2022/04/07 04:37:14;;;;;;;3.45;0.98;;;6.50;78.20;;;;;;5100821;28;20488;-64
2022/04/07 04:39:41;;;;;;;9.65;1.50;;;6.50;77.90;;;;;;5096734;28;20239;-65
2022/04/07 04:42:09;;;;;;;4.93;1.08;;;6.60;77.40;;;;;;5099335;28;20051;-65
2022/04/07 04:44:36;;;;;;;17.05;1.80;;;6.60;77.20;;;;;;5091609;28;20036;-65
2022/04/07 04:47:04;;;;;;;3.63;1.25;;;6.70;76.80;;;;;;5096207;28;20419;-64
2022/04/07 04:49:32;;;;;;;2.50;0.63;;;6.70;76.30;;;;;;5099865;28;20503;-65
2022/04/07 04:52:00;;;;;;;8.45;1.60;;;6.80;76.30;;;;;;5103427;28;20040;-64
2022/04/07 04:54:27;;;;;;;6.45;1.10;;;6.80;76.40;;;;;;5100360;28;20075;-65
2022/04/07 04:56:55;;;;;;;10.88;1.45;;;6.80;76.80;;;;;;5097867;28;20122;-65
2022/04/07 04:59:22;;;;;;;5.03;0.73;;;6.70;77.00;;;;;;5096809;28;20040;-65
2022/04/07 05:01:50;;;;;;;6.65;1.00;;;6.70;77.50;;;;;;5088301;28;20064;-65
2022/04/07 05:04:18;;;;;;;5.78;0.98;;;6.70;77.50;;;;;;5094972;28;20048;-64
2022/04/07 05:06:45;;;;;;;4.80;0.43;;;6.60;77.70;;;;;;5097961;28;20047;-64
2022/04/07 05:09:13;;;;;;;3.90;0.50;;;6.60;77.90;;;;;;5098625;28;20047;-65
2022/04/07 05:11:41;;;;;;;13.05;0.95;;;6.60;78.40;;;;;;5093892;28;20048;-64
2022/04/07 05:14:08;;;;;;;3.05;0.85;;;6.50;78.70;;;;;;5101369;28;20044;-65
2022/04/07 05:16:36;;;;;;;9.65;1.23;;;6.40;79.30;;;;;;5095453;28;20049;-64
2022/04/07 05:19:03;;;;;;;4.07;0.63;;;6.30;79.60;;;;;;5095779;28;20036;-65
2022/04/07 05:21:31;;;;;;;5.60;1.10;;;6.30;79.30;;;;;;5095164;28;20099;-64
2022/04/07 05:23:59;;;;;;;6.70;0.70;;;6.40;79.10;;;;;;5095145;28;20587;-65
2022/04/07 05:26:27;;;;;;;3.75;0.77;;;6.40;79.30;;;;;;5100136;28;20040;-65
2022/04/07 05:28:54;;;;;;;2.45;0.60;;;6.40;79.40;;;;;;5099625;28;20052;-64
2022/04/07 05:31:22;;;;;;;6.70;0.70;;;6.40;79.40;;;;;;5097389;28;20031;-65
2022/04/07 05:33:50;;;;;;;4.50;0.98;;;6.30;79.90;;;;;;5095570;28;20059;-65
2022/04/07 05:36:18;;;;;;;2.35;0.50;;;6.30;80.20;;;;;;5097571;28;20040;-64
2022/04/07 05:38:45;;;;;;;6.45;0.90;;;6.20;80.30;;;;;;5091732;28;20059;-66
2022/04/07 05:41:13;;;;;;;6.57;1.00;;;6.20;80.40;;;;;;5095366;28;20042;-65
2022/04/07 05:43:40;;;;;;;3.85;0.52;;;6.30;80.00;;;;;;5095558;28;20044;-65
2022/04/07 05:46:08;;;;;;;6.93;0.38;;;6.30;80.00;;;;;;5097132;28;20405;-64
2022/04/07 05:48:36;;;;;;;3.33;0.77;;;6.30;79.70;;;;;;5099497;28;20055;-64
2022/04/07 05:51:03;;;;;;;3.80;0.77;;;6.30;79.90;;;;;;5094376;28;20401;-65
2022/04/07 05:53:31;;;;;;;7.40;0.90;;;6.30;79.90;;;;;;5104657;28;20043;-65
2022/04/07 05:55:58;;;;;;;10.00;0.85;;;6.20;80.00;;;;;;5098028;28;20413;-65
2022/04/07 05:58:26;;;;;;;2.33;0.70;;;6.30;80.10;;;;;;5104098;28;20157;-65
2022/04/07 06:00:54;;;;;;;6.32;1.23;;;6.20;80.00;;;;;;5097377;28;20477;-65
2022/04/07 06:03:21;;;;;;;3.92;0.60;;;6.20;80.20;;;;;;5099679;28;20059;-65
2022/04/07 06:05:52;;;;;;;5.10;0.63;;;6.20;80.40;;;;;;5102403;28;20050;-65
2022/04/07 06:08:20;;;;;;;2.50;0.52;;;6.20;80.50;;;;;;5100374;28;20036;-65
2022/04/07 06:10:48;;;;;;;4.90;0.52;;;6.20;80.50;;;;;;5098324;28;20054;-68
2022/04/07 06:13:16;;;;;;;1.92;0.60;;;6.20;80.30;;;;;;5100264;28;20091;-64
2022/04/07 06:15:43;;;;;;;7.75;1.13;;;6.30;80.10;;;;;;5085849;28;20043;-64
2022/04/07 06:18:13;;;;;;;2.88;0.40;;;6.30;80.20;;;;;;5099145;28;20044;-65
2022/04/07 06:20:41;;;;;;;7.03;0.73;;;6.30;80.20;;;;;;5095675;28;20040;-64
2022/04/07 06:23:09;;;;;;;4.28;0.60;;;6.30;79.90;;;;;;5095017;28;20068;-64
2022/04/07 06:25:37;;;;;;;4.22;0.60;;;6.40;79.70;;;;;;5081698;28;20031;-64
2022/04/07 06:28:05;;;;;;;6.95;1.30;;;6.40;79.60;;;;;;5097614;28;20051;-64
2022/04/07 06:30:32;;;;;;;3.55;0.63;;;6.40;79.80;;;;;;5095842;28;20054;-64
2022/04/07 06:33:00;;;;;;;2.72;1.00;;;6.50;79.80;;;;;;5092541;28;20047;-64
2022/04/07 06:35:28;;;;;;;1.40;0.30;;;6.50;80.30;;;;;;5093250;28;20076;-64
2022/04/07 06:37:56;;;;;;;4.53;0.80;;;6.50;80.40;;;;;;5092938;28;20047;-64
2022/04/07 06:40:29;;;;;;;4.85;0.63;;;6.50;80.00;;;;;;5093904;28;20040;-64
2022/04/07 06:42:58;;;;;;;4.30;0.63;;;6.60;80.30;;;;;;5091299;28;20047;-66
2022/04/07 06:45:27;;;;;;;6.85;1.00;;;6.60;80.00;;;;;;5095443;28;20630;-64
2022/04/07 06:47:56;;;;;;;3.38;0.68;;;6.60;80.10;;;;;;5100214;28;20064;-64
2022/04/07 06:50:25;;;;;;;6.15;0.80;;;6.60;80.00;;;;;;5094048;28;20052;-64
2022/04/07 06:52:54;;;;;;;3.97;0.55;;;6.50;80.20;;;;;;5097249;28;20424;-64
2022/04/07 06:55:22;;;;;;;1.10;0.22;;;6.50;80.00;;;;;;5095462;28;20059;-64
2022/04/07 06:57:56;;;;;;;4.55;0.80;;;6.50;79.90;;;;;;5100596;28;20531;-64
2022/04/07 07:00:25;;;;;;;3.92;1.00;;;6.50;79.70;;;;;;5076675;28;20168;-64
2022/04/07 07:02:54;;;;;;;4.55;0.60;;;6.50;80.10;;;;;;5097941;28;20439;-64
2022/04/07 07:05:24;;;;;;;6.47;0.80;;;6.50;80.50;;;;;;5086818;28;20506;-65
2022/04/07 07:07:52;;;;;;;6.35;0.88;;;6.50;79.30;;;;;;5095711;28;20044;-65
2022/04/07 07:10:23;;;;;;;5.28;0.80;;;6.50;79.70;;;;;;5100262;28;20048;-65
2022/04/07 07:12:52;;;;;;;2.65;1.05;;;6.50;80.40;;;;;;5100891;28;20423;-65
2022/04/07 07:15:23;;;;;;;7.68;0.82;;;6.60;79.90;;;;;;5099144;28;20405;-66
2022/04/07 07:17:51;;;;;;;3.83;0.50;;;6.60;80.10;;;;;;5090711;28;20048;-64
2022/04/07 07:20:20;;;;;;;1.60;0.20;;;6.70;80.40;;;;;;5089679;28;20052;-65
2022/04/07 07:22:47;;;;;;;5.25;0.82;;;6.70;80.00;;;;;;5100193;28;20059;-64
2022/04/07 07:25:15;;;;;;;4.60;0.40;;;6.80;79.70;;;;;;5095554;28;20040;-65
2022/04/07 07:27:47;;;;;;;5.10;0.90;;;6.90;79.10;;;;;;5098090;28;20066;-65
2022/04/07 07:30:16;;;;;;;1.75;0.22;;;7.00;79.00;;;;;;5097407;28;20075;-65
2022/04/07 07:32:47;;;;;;;2.90;0.70;;;7.10;78.90;;;;;;5098480;28;20046;-65
2022/04/07 07:35:20;;;;;;;2.67;0.50;;;7.10;79.20;;;;;;5093398;28;20055;-65
2022/04/07 07:37:53;;;;;;;2.53;0.60;;;7.10;79.00;;;;;;5093414;28;20071;-65
2022/04/07 07:40:29;;;;;;;2.72;0.70;;;7.00;78.80;;;;;;5101765;28;20036;-65
2022/04/07 07:42:58;;;;;;;4.10;0.77;;;7.00;79.30;;;;;;5098844;28;20050;-65
2022/04/07 07:45:34;;;;;;;0.95;0.30;;;7.10;79.40;;;;;;5096210;28;20036;-65
2022/04/07 07:48:27;;;;;;;3.90;0.68;;;7.20;79.10;;;;;;5093391;28;20051;-65
2022/04/07 07:50:56;;;;;;;3.80;0.60;;;7.20;78.90;;;;;;5081073;28;20048;-65
2022/04/07 07:53:24;;;;;;;2.35;0.47;;;7.20;78.50;;;;;;5094556;28;20044;-65
2022/04/07 07:55:53;;;;;;;3.15;0.55;;;7.20;78.40;;;;;;5091334;28;20051;-65
2022/04/07 07:58:25;;;;;;;1.92;0.60;;;7.30;78.80;;;;;;5092818;28;20051;-65
2022/04/07 08:00:53;;;;;;;7.30;0.90;;;7.30;78.70;;;;;;5091337;28;20036;-65
2022/04/07 08:03:21;;;;;;;3.53;0.65;;;7.30;78.40;;;;;;5092671;28;20054;-65
2022/04/07 08:05:48;;;;;;;2.88;0.70;;;7.30;78.60;;;;;;5091498;28;20052;-65
2022/04/07 08:08:16;;;;;;;1.60;0.45;;;7.20;79.10;;;;;;5100424;28;20051;-64
2022/04/07 08:10:44;;;;;;;3.45;0.50;;;7.20;78.70;;;;;;5092504;28;20079;-65
2022/04/07 08:13:11;;;;;;;1.92;0.50;;;7.10;78.70;;;;;;5095579;28;20036;-64
2022/04/07 08:15:39;;;;;;;5.18;1.20;;;7.00;79.00;;;;;;5102212;28;20070;-65
2022/04/07 08:18:08;;;;;;;8.80;1.13;;;7.00;79.10;;;;;;5092076;28;20059;-65
2022/04/07 08:20:36;;;;;;;7.78;1.30;;;7.10;78.80;;;;;;5092593;28;20043;-65
2022/04/07 08:23:04;;;;;;;6.45;0.82;;;7.30;77.80;;;;;;5091217;28;20060;-65
2022/04/07 08:25:31;;;;;;;4.95;0.93;;;7.30;78.10;;;;;;5108180;28;20044;-65
2022/04/07 08:27:59;;;;;;;5.85;1.10;;;7.60;76.60;;;;;;5092180;28;20051;-65
2022/04/07 08:30:26;;;;;;;13.00;1.63;;;7.70;76.40;;;;;;5091917;28;20050;-64
2022/04/07 08:32:54;;;;;;;4.80;1.13;;;7.60;76.70;;;;;;5094229;28;20055;-65
2022/04/07 08:35:22;;;;;;;5.30;1.05;;;7.40;77.20;;;;;;5092277;28;20063;-64
2022/04/07 08:37:50;;;;;;;9.32;1.63;;;7.40;77.80;;;;;;5092710;28;20044;-63
2022/04/07 08:40:21;;;;;;;10.02;1.70;;;7.30;77.70;;;;;;5090711;28;20045;-64
2022/04/07 08:42:49;;;;;;;5.72;1.17;;;7.20;78.40;;;;;;5114641;27;20051;-64
2022/04/07 08:45:17;;;;;;;12.40;1.60;;;7.10;79.00;;;;;;5112853;28;20488;-64
2022/04/07 08:47:48;;;;;;;7.00;1.30;;;7.10;79.30;;;;;;5104987;28;20055;-65
2022/04/07 08:50:21;;;;;;;13.02;1.90;;;7.10;79.90;;;;;;5100882;28;20043;-64
2022/04/07 08:52:49;;;;;;;8.02;1.55;;;7.20;79.70;;;;;;5112790;28;20051;-64
2022/04/07 08:55:17;;;;;;;10.35;1.70;;;7.30;79.70;;;;;;5102961;28;20043;-64
2022/04/07 08:57:45;;;;;;;9.35;1.75;;;7.40;79.50;;;;;;5084655;28;20048;-65
2022/04/07 09:00:13;;;;;;;7.53;1.35;;;7.60;78.80;;;;;;5091867;28;20409;-64
2022/04/07 09:02:40;;;;;;;11.10;1.55;;;7.80;77.60;;;;;;5092126;28;20417;-64
2022/04/07 09:05:11;;;;;;;7.43;1.02;;;7.90;77.10;;;;;;5088199;28;20051;-64
2022/04/07 09:07:39;;;;;;;7.72;1.00;;;8.00;76.60;;;;;;5091918;28;20051;-64
2022/04/07 09:10:08;;;;;;;11.25;1.73;;;7.90;76.80;;;;;;5091337;28;20413;-65
2022/04/07 09:12:38;;;;;;;6.25;0.63;;;7.90;77.20;;;;;;5107653;28;20040;-64
2022/04/07 09:15:07;;;;;;;6.13;1.20;;;7.80;77.70;;;;;;5090101;28;20055;-65
2022/04/07 09:17:49;;;;;;;6.15;1.42;;;7.80;77.30;;;;;;5092754;28;20477;-65
2022/04/07 09:20:16;;;;;;;5.63;1.10;;;8.00;77.30;;;;;;5091318;28;20489;-65
2022/04/07 09:22:44;;;;;;;5.95;0.80;;;8.20;77.00;;;;;;5091851;28;20050;-65
2022/04/07 09:25:12;;;;;;;3.95;0.50;;;8.20;75.60;;;;;;5089486;28;20051;-65
2022/04/07 09:27:41;;;;;;;3.72;0.43;;;7.80;77.20;;;;;;5093781;28;20378;-65
2022/04/07 09:30:10;;;;;;;5.75;1.00;;;7.30;78.60;;;;;;5074533;28;20052;-65
2022/04/07 09:32:45;;;;;;;7.53;0.90;;;7.00;79.30;;;;;;5091242;28;20056;-64
2022/04/07 09:35:13;;;;;;;4.78;0.93;;;6.80;80.80;;;;;;5081539;28;20040;-65
2022/04/07 09:37:42;;;;;;;7.75;1.23;;;7.00;81.60;;;;;;5095638;28;20055;-65
2022/04/07 09:40:16;;;;;;;6.63;1.30;;;7.20;82.10;;;;;;5094677;28;20370;-65
2022/04/07 09:42:45;;;;;;;5.60;0.80;;;7.50;82.20;;;;;;5095008;28;20036;-65
2022/04/07 09:45:14;;;;;;;4.13;0.82;;;7.80;81.80;;;;;;5093353;28;20044;-65
2022/04/07 09:47:44;;;;;;;7.88;1.20;;;7.90;80.80;;;;;;5088757;28;20040;-65
2022/04/07 09:50:22;;;;;;;4.18;1.10;;;8.00;80.40;;;;;;5094690;28;20048;-64
2022/04/07 09:53:02;;;;;;;7.05;1.45;;;7.90;79.90;;;;;;5094007;28;20060;-64
2022/04/07 09:55:43;;;;;;;8.05;0.90;;;7.90;79.50;;;;;;5093677;28;20055;-66
2022/04/07 09:58:12;;;;;;;3.85;0.55;;;7.70;79.90;;;;;;5095116;28;20489;-67
2022/04/07 10:00:41;;;;;;;4.28;1.08;;;7.30;79.80;;;;;;5105804;28;20385;-65
2022/04/07 10:03:09;;;;;;;1.85;0.50;;;6.70;81.50;;;;;;5093756;28;20366;-66
2022/04/07 10:05:38;;;;;;;2.55;0.57;;;6.60;82.60;;;;;;5097495;28;20497;-64
2022/04/07 10:08:07;;;;;;;8.85;1.05;;;6.60;83.00;;;;;;5077249;28;20489;-64
2022/04/07 10:10:35;;;;;;;9.05;1.30;;;6.70;83.20;;;;;;5073983;28;20036;-64
2022/04/07 10:13:03;;;;;;;8.75;0.82;;;6.80;83.40;;;;;;5075462;28;20489;-64
2022/04/07 10:15:32;;;;;;;4.68;1.13;;;6.90;83.10;;;;;;5094145;28;20548;-64
2022/04/07 10:18:04;;;;;;;4.95;0.90;;;7.00;82.90;;;;;;5096887;28;20075;-63
2022/04/07 10:20:39;;;;;;;6.25;0.85;;;7.00;82.30;;;;;;5114055;28;20055;-66
2022/04/07 10:23:32;;;;;;;3.38;0.55;;;7.10;82.30;;;;;;5092744;28;20055;-66
2022/04/07 10:26:02;;;;;;;6.18;1.35;;;7.00;81.90;;;;;;5080821;28;20040;-66
2022/04/07 10:28:31;;;;;;;6.10;0.88;;;6.70;82.20;;;;;;5092989;28;20048;-68
2022/04/07 10:31:12;;;;;;;8.32;1.30;;;6.50;82.00;;;;;;5094407;28;20056;-68
2022/04/07 10:33:43;;;;;;;6.40;0.70;;;6.30;82.20;;;;;;5044259;28;20052;-67
2022/04/07 10:36:18;;;;;;;3.08;0.70;;;5.90;83.00;;;;;;5094545;28;20051;-69
2022/04/07 10:38:48;;;;;;;1.40;0.45;;;5.70;84.10;;;;;;5075864;28;20413;-69
2022/04/07 10:41:39;;;;;;;2.15;0.50;;;5.30;83.30;;;;;;5094897;28;20052;-66
2022/04/07 10:44:08;;;;;;;3.97;0.80;;;4.90;84.80;;;;;;5084478;28;20051;-65
2022/04/07 10:46:36;;;;;;;5.40;0.70;;;4.70;86.40;;;;;;5093434;28;20040;-65
2022/04/07 10:49:12;;;;;;;2.30;0.45;;;4.80;87.50;;;;;;5093345;28;20063;-65
2022/04/07 10:52:03;;;;;;;3.15;0.63;;;5.00;88.10;;;;;;5090961;28;20081;-65
2022/04/07 10:54:32;;;;;;;5.38;0.80;;;5.40;88.60;;;;;;5093385;28;20051;-65
2022/04/07 10:57:01;;;;;;;6.53;0.88;;;5.90;89.00;;;;;;5094020;28;20067;-65
2022/04/07 10:59:34;;;;;;;3.63;0.60;;;6.50;88.90;;;;;;5094114;28;20405;-65
2022/04/07 11:02:07;;;;;;;3.42;0.75;;;7.00;88.00;;;;;;5094340;28;20051;-66
2022/04/07 11:04:36;;;;;;;7.63;0.80;;;7.30;85.90;;;;;;5093909;28;20052;-66
2022/04/07 11:07:19;;;;;;;4.07;0.70;;;7.30;85.40;;;;;;5094019;28;20047;-66
2022/04/07 11:09:54;;;;;;;1.42;0.38;;;7.50;85.20;;;;;;5075946;28;20067;-66
2022/04/07 11:12:37;;;;;;;5.43;0.60;;;7.40;84.50;;;;;;5094259;28;20067;-67
2022/04/07 11:15:05;;;;;;;9.43;1.60;;;7.30;84.20;;;;;;5093780;28;20047;-66
2022/04/07 11:17:37;;;;;;;3.22;0.60;;;7.00;84.20;;;;;;5094109;28;20074;-69
2022/04/07 11:20:17;;;;;;;3.20;0.43;;;6.70;83.80;;;;;;5093804;28;20044;-71
2022/04/07 11:23:05;;;;;;;4.90;0.40;;;6.20;83.30;;;;;;5093309;28;20055;-68
2022/04/07 11:25:34;;;;;;;2.95;0.50;;;5.60;84.70;;;;;;5093513;28;20047;-67
2022/04/07 11:28:19;;;;;;;0.93;0.10;;;5.40;85.80;;;;;;5075538;28;20052;-66
2022/04/07 11:30:49;;;;;;;1.27;0.30;;;5.40;86.80;;;;;;5093743;28;20059;-66
2022/04/07 11:33:20;;;;;;;0.43;0.30;;;5.50;87.50;;;;;;5094283;28;20055;-66
2022/04/07 11:35:59;;;;;;;1.85;0.40;;;5.80;88.00;;;;;;5093014;28;20509;-66
2022/04/07 11:38:31;;;;;;;3.65;0.63;;;6.20;87.90;;;;;;5093248;28;20434;-66
2022/04/07 11:41:02;;;;;;;3.40;0.43;;;6.50;87.20;;;;;;5092179;28;20048;-66
2022/04/07 11:43:31;;;;;;;4.57;0.93;;;6.80;86.50;;;;;;5108694;28;20051;-66
2022/04/07 11:45:59;;;;;;;4.07;0.77;;;7.00;86.00;;;;;;5097282;28;20044;-66
2022/04/07 11:48:47;;;;;;;3.05;0.57;;;7.20;84.50;;;;;;5075573;28;20044;-66
2022/04/07 11:51:18;;;;;;;1.90;0.40;;;7.30;83.20;;;;;;5091290;28;20048;-66
2022/04/07 11:53:54;;;;;;;11.10;1.10;;;7.30;82.80;;;;;;5097448;28;20044;-66
2022/04/07 11:56:26;;;;;;;6.60;1.02;;;7.30;82.40;;;;;;5091476;28;20048;-65
2022/04/07 11:58:56;;;;;;;5.00;0.80;;;7.20;82.40;;;;;;5078624;28;20071;-65
2022/04/07 12:01:24;;;;;;;3.28;0.90;;;7.20;82.90;;;;;;5096221;28;20489;-68
2022/04/07 12:03:53;;;;;;;8.50;1.20;;;7.10;83.10;;;;;;5096504;28;20048;-69
2022/04/07 12:06:22;;;;;;;7.70;1.08;;;7.10;83.10;;;;;;5092641;28;20055;-72
2022/04/07 12:08:51;;;;;;;6.75;0.93;;;7.30;82.80;;;;;;5092479;28;20051;-66
2022/04/07 12:11:24;;;;;;;7.40;1.27;;;7.20;82.70;;;;;;5091790;28;20040;-66
2022/04/07 12:13:53;;;;;;;4.28;0.85;;;7.20;83.00;;;;;;5093764;28;20059;-67
2022/04/07 12:16:24;;;;;;;7.82;0.75;;;7.10;82.90;;;;;;5093864;28;20038;-71
2022/04/07 12:18:52;;;;;;;7.72;0.52;;;7.20;82.70;;;;;;5094676;28;20044;-72
2022/04/07 12:21:20;;;;;;;7.80;1.17;;;7.50;81.90;;;;;;5109401;28;20409;-69
2022/04/07 12:23:49;;;;;;;5.57;1.00;;;7.80;81.10;;;;;;5092507;28;20048;-69
2022/04/07 12:26:16;;;;;;;7.35;0.75;;;8.10;81.10;;;;;;5091877;28;20504;-65
2022/04/07 12:28:44;;;;;;;5.10;0.98;;;8.60;79.30;;;;;;5091453;28;20055;-67
2022/04/07 12:31:19;;;;;;;2.67;0.60;;;9.10;77.80;;;;;;5092228;28;20052;-66
2022/04/07 12:33:48;;;;;;;6.72;0.90;;;9.20;77.40;;;;;;5092516;28;20059;-66
2022/04/07 12:36:32;;;;;;;8.35;0.95;;;9.20;76.10;;;;;;5099636;28;20409;-70
2022/04/07 12:39:00;;;;;;;;;;;9.10;75.60;;;;;;5091021;28;20044;-66
2022/04/07 12:41:41;;;;;;;3.40;0.52;;;9.00;75.50;;;;;;5092799;28;19924;-67
2022/04/07 12:44:10;;;;;;;2.58;0.70;;;8.60;76.40;;;;;;5094889;28;20481;-67
2022/04/07 12:46:44;;;;;;;1.92;0.38;;;7.90;76.70;;;;;;5091624;28;20401;-67
2022/04/07 12:49:12;;;;;;;1.88;0.50;;;7.40;78.00;;;;;;5090983;28;20062;-67
2022/04/07 12:51:41;;;;;;;2.83;0.50;;;7.00;79.30;;;;;;5091788;28;20070;-67
2022/04/07 12:54:14;;;;;;;4.97;0.70;;;7.00;80.00;;;;;;5092009;28;20040;-68
2022/04/07 12:56:43;;;;;;;2.60;0.50;;;7.40;79.90;;;;;;5091554;28;20051;-67
2022/04/07 12:59:14;;;;;;;2.85;0.57;;;7.70;78.70;;;;;;5092922;28;20047;-67
2022/04/07 13:01:48;;;;;;;8.02;0.90;;;7.80;78.00;;;;;;5101082;28;20040;-67
2022/04/07 13:04:17;;;;;;;3.22;0.52;;;7.70;77.60;;;;;;5110887;28;20047;-67
2022/04/07 13:06:46;;;;;;;4.47;0.82;;;7.50;77.50;;;;;;5091990;28;20048;-67
2022/04/07 13:09:16;;;;;;;5.78;0.75;;;7.50;77.60;;;;;;5089590;28;20059;-67